createdAt,value
2022-08-21T00:00:25.841Z,21.63
2022-08-21T00:03:10.057Z,21.67
2022-08-21T00:05:48.554Z,21.64
2022-08-21T00:08:16.108Z,21.65
2022-08-21T00:10:45.413Z,21.69
2022-08-21T00:13:14.157Z,21.67
2022-08-21T00:15:48.428Z,21.68
2022-08-21T00:18:17.034Z,21.71
2022-08-21T00:20:46.364Z,21.73
2022-08-21T00:23:14.943Z,21.73
2022-08-21T00:25:45.151Z,21.70
2022-08-21T00:28:14.872Z,21.71
2022-08-21T00:30:44.345Z,21.68
2022-08-21T00:33:13.784Z,21.68
2022-08-21T00:35:44.275Z,21.67
2022-08-21T00:38:11.976Z,21.68
2022-08-21T00:40:49.570Z,21.69
2022-08-21T00:43:24.199Z,21.72
2022-08-21T00:45:53.851Z,21.72
2022-08-21T00:48:22.458Z,21.71
2022-08-21T00:51:16.448Z,21.71
2022-08-21T00:53:51.760Z,21.76
2022-08-21T00:56:24.251Z,21.78
2022-08-21T00:58:58.692Z,21.84
2022-08-21T01:01:26.085Z,21.88
2022-08-21T01:03:53.544Z,21.93
2022-08-21T01:06:21.399Z,21.94
2022-08-21T01:08:49.211Z,21.98
2022-08-21T01:11:17.513Z,22.02
2022-08-21T01:13:47.613Z,22.05
2022-08-21T01:16:21.713Z,22.05
2022-08-21T01:18:51.371Z,22.09
2022-08-21T01:21:27.889Z,22.07
2022-08-21T01:23:58.523Z,22.12
2022-08-21T01:26:33.707Z,22.12
2022-08-21T01:29:33.179Z,22.13
2022-08-21T01:32:06.548Z,22.16
2022-08-21T01:34:38.679Z,22.17
2022-08-21T01:37:06.689Z,22.21
2022-08-21T01:39:35.816Z,22.25
2022-08-21T01:42:05.883Z,22.26
2022-08-21T01:44:34.090Z,22.26
2022-08-21T01:47:06.125Z,22.27
2022-08-21T01:49:33.750Z,22.26
2022-08-21T01:52:01.319Z,22.28
2022-08-21T01:54:28.925Z,22.26
2022-08-21T01:56:56.674Z,22.26
2022-08-21T01:59:25.482Z,22.25
2022-08-21T02:01:55.114Z,22.25
2022-08-21T02:04:23.312Z,22.27
2022-08-21T02:06:51.550Z,22.29
2022-08-21T02:09:19.827Z,22.30
2022-08-21T02:11:47.885Z,22.33
2022-08-21T02:14:31.939Z,22.34
2022-08-21T02:17:05.510Z,22.36
2022-08-21T02:19:40.140Z,22.37
2022-08-21T02:22:12.284Z,22.37
2022-08-21T02:24:54.173Z,22.38
2022-08-21T02:27:26.761Z,22.38
2022-08-21T02:29:58.258Z,22.41
2022-08-21T02:32:26.937Z,22.43
2022-08-21T02:34:55.053Z,22.45
2022-08-21T02:37:22.346Z,22.48
2022-08-21T02:39:50.825Z,22.49
2022-08-21T02:42:19.197Z,22.49
2022-08-21T02:44:46.493Z,22.50
2022-08-21T02:47:15.492Z,22.50
2022-08-21T02:49:42.851Z,22.52
2022-08-21T02:52:10.450Z,22.53
2022-08-21T02:54:37.901Z,22.56
2022-08-21T02:57:05.599Z,22.56
2022-08-21T02:59:33.220Z,22.58
2022-08-21T03:02:00.734Z,22.58
2022-08-21T03:04:28.029Z,22.57
2022-08-21T03:06:55.237Z,22.56
2022-08-21T03:09:22.811Z,22.53
2022-08-21T03:11:50.098Z,22.56
2022-08-21T03:14:17.355Z,22.58
2022-08-21T03:16:45.566Z,22.59
2022-08-21T03:19:14.148Z,22.58
2022-08-21T03:21:41.414Z,22.56
2022-08-21T03:24:10.283Z,22.59
2022-08-21T03:26:37.542Z,22.60
2022-08-21T03:29:08.540Z,22.61
2022-08-21T03:31:36.017Z,22.67
2022-08-21T03:34:03.284Z,22.67
2022-08-21T03:36:30.670Z,22.69
2022-08-21T03:38:58.110Z,22.70
2022-08-21T03:41:25.360Z,22.70
2022-08-21T03:43:52.594Z,22.70
2022-08-21T03:46:20.024Z,22.71
2022-08-21T03:48:48.501Z,22.73
2022-08-21T03:51:15.980Z,22.72
2022-08-21T03:53:43.466Z,22.72
2022-08-21T03:56:10.794Z,22.72
2022-08-21T03:58:39.406Z,22.70
2022-08-21T04:01:07.838Z,22.70
2022-08-21T04:03:37.978Z,22.69
2022-08-21T04:06:06.082Z,22.70
2022-08-21T04:08:33.888Z,22.70
2022-08-21T04:11:02.325Z,22.72
2022-08-21T04:13:29.736Z,22.73
2022-08-21T04:15:59.671Z,22.76
2022-08-21T04:18:27.076Z,22.79
2022-08-21T04:20:58.697Z,22.83
2022-08-21T04:23:27.484Z,22.77
2022-08-21T04:25:57.329Z,22.77
2022-08-21T04:28:29.161Z,22.77
2022-08-21T04:30:58.913Z,22.76
2022-08-21T04:33:26.732Z,22.81
2022-08-21T04:35:54.120Z,22.89
2022-08-21T04:38:22.178Z,22.92
2022-08-21T04:40:51.426Z,23.00
2022-08-21T04:43:19.388Z,23.06
2022-08-21T04:45:50.248Z,23.14
2022-08-21T04:48:22.726Z,23.24
2022-08-21T04:51:09.053Z,23.29
2022-08-21T04:53:53.627Z,23.31
2022-08-21T04:56:32.798Z,23.34
2022-08-21T04:59:05.164Z,23.35
2022-08-21T05:01:38.867Z,23.34
2022-08-21T05:04:11.393Z,23.35
2022-08-21T05:06:45.309Z,23.32
2022-08-21T05:09:17.514Z,23.27
2022-08-21T05:11:45.778Z,23.21
2022-08-21T05:14:13.928Z,23.15
2022-08-21T05:16:42.878Z,23.13
2022-08-21T05:19:11.136Z,23.14
2022-08-21T05:24:10.582Z,23.32
2022-08-21T05:26:46.347Z,23.42
2022-08-21T05:29:18.321Z,23.51
2022-08-21T05:31:48.096Z,23.60
2022-08-21T05:34:20.367Z,23.64
2022-08-21T05:36:47.849Z,23.66
2022-08-21T05:39:16.395Z,23.62
2022-08-21T05:41:43.770Z,23.55
2022-08-21T05:44:11.353Z,23.50
2022-08-21T05:46:39.326Z,23.47
2022-08-21T05:49:06.589Z,23.45
2022-08-21T05:51:34.142Z,23.47
2022-08-21T05:54:01.470Z,23.46
2022-08-21T05:56:28.743Z,23.43
2022-08-21T05:58:56.757Z,23.38
2022-08-21T06:01:24.035Z,23.31
2022-08-21T06:03:51.421Z,23.28
2022-08-21T06:06:18.978Z,23.25
2022-08-21T06:08:46.555Z,23.31
2022-08-21T06:11:13.860Z,23.40
2022-08-21T06:13:42.560Z,23.40
2022-08-21T06:16:16.729Z,23.41
2022-08-21T06:18:46.798Z,23.34
2022-08-21T06:21:15.152Z,23.22
2022-08-21T06:23:43.936Z,23.15
2022-08-21T06:26:15.624Z,23.04
2022-08-21T06:28:43.743Z,22.88
2022-08-21T06:31:18.350Z,22.75
2022-08-21T06:33:46.719Z,22.71
2022-08-21T06:36:14.147Z,22.56
2022-08-21T06:38:41.787Z,22.43
2022-08-21T06:41:23.766Z,22.38
2022-08-21T06:43:54.448Z,22.40
2022-08-21T06:46:23.267Z,22.37
2022-08-21T06:48:50.578Z,22.33
2022-08-21T06:51:17.888Z,22.42
2022-08-21T06:53:45.364Z,22.51
2022-08-21T06:56:13.146Z,22.55
2022-08-21T06:58:40.400Z,22.57
2022-08-21T07:01:08.151Z,22.56
2022-08-21T07:03:41.001Z,22.63
2022-08-21T07:06:11.428Z,22.72
2022-08-21T07:08:39.210Z,23.00
2022-08-21T07:11:19.863Z,23.19
2022-08-21T07:13:47.674Z,23.39
2022-08-21T07:16:15.756Z,23.51
2022-08-21T07:18:42.965Z,23.52
2022-08-21T07:21:11.337Z,23.58
2022-08-21T07:23:49.599Z,23.65
2022-08-21T07:26:22.965Z,23.66
2022-08-21T07:28:51.424Z,23.67
2022-08-21T07:31:22.526Z,23.67
2022-08-21T07:33:50.254Z,23.78
2022-08-21T07:36:18.550Z,23.74
2022-08-21T07:38:52.801Z,23.78
2022-08-21T07:41:26.408Z,23.88
2022-08-21T07:43:54.190Z,24.00
2022-08-21T07:46:21.992Z,24.15
2022-08-21T07:48:49.340Z,24.24
2022-08-21T07:51:18.846Z,24.24
2022-08-21T07:53:55.408Z,24.23
2022-08-21T07:56:23.350Z,24.42
2022-08-21T07:58:50.833Z,24.60
2022-08-21T08:01:19.401Z,24.66
2022-08-21T08:03:47.572Z,24.78
2022-08-21T08:06:15.155Z,24.97
2022-08-21T08:08:43.708Z,25.10
2022-08-21T08:11:12.599Z,25.36
2022-08-21T08:13:43.170Z,25.78
2022-08-21T08:16:10.798Z,26.53
2022-08-21T08:18:39.391Z,27.24
2022-08-21T08:21:07.124Z,27.81
2022-08-21T08:23:34.820Z,28.37
2022-08-21T08:26:05.919Z,28.69
2022-08-21T08:28:34.365Z,29.46
2022-08-21T08:31:02.850Z,30.39
2022-08-21T08:33:31.165Z,30.32
2022-08-21T08:36:00.502Z,30.48
2022-08-21T08:38:31.112Z,31.20
2022-08-21T08:41:23.946Z,31.17
2022-08-21T08:44:07.015Z,31.16
2022-08-21T08:46:47.288Z,30.84
2022-08-21T08:49:49.678Z,30.50
2022-08-21T08:52:31.867Z,30.72
2022-08-21T08:55:20.854Z,31.18
2022-08-21T08:57:52.465Z,32.22
2022-08-21T09:00:23.994Z,32.93
2022-08-21T09:02:58.238Z,33.93
2022-08-21T09:05:34.871Z,35.54
2022-08-21T09:08:28.322Z,36.54
2022-08-21T09:11:29.728Z,38.48
2022-08-21T09:14:25.027Z,37.78
2022-08-21T09:17:14.865Z,35.44
2022-08-21T09:20:24.678Z,34.03
2022-08-21T09:23:32.474Z,32.89
2022-08-21T09:26:21.031Z,31.40
2022-08-21T09:28:57.387Z,31.14
2022-08-21T09:31:35.973Z,30.73
2022-08-21T09:34:07.488Z,29.90
2022-08-21T09:36:49.421Z,29.76
2022-08-21T09:39:32.178Z,29.87
2022-08-21T09:42:11.084Z,30.18
2022-08-21T09:44:44.463Z,30.51
2022-08-21T09:47:13.883Z,30.30
2022-08-21T09:49:44.457Z,30.87
2022-08-21T09:52:26.502Z,30.14
2022-08-21T09:54:57.125Z,29.58
2022-08-21T09:57:41.716Z,28.88
2022-08-21T10:00:32.552Z,27.96
2022-08-21T10:03:21.330Z,27.23
2022-08-21T10:05:59.300Z,26.50
2022-08-21T10:08:29.832Z,26.30
2022-08-21T10:11:07.714Z,26.14
2022-08-21T10:13:44.005Z,26.04
2022-08-21T10:16:27.577Z,25.94
2022-08-21T10:19:12.153Z,25.99
2022-08-21T10:22:26.188Z,25.74
2022-08-21T10:24:53.432Z,25.45
2022-08-21T10:28:13.547Z,25.39
2022-08-21T10:31:04.075Z,25.13
2022-08-21T10:34:18.659Z,25.16
2022-08-21T10:37:20.028Z,24.95
2022-08-21T10:40:22.284Z,24.99
2022-08-21T10:43:09.433Z,25.19
2022-08-21T10:46:13.077Z,25.23
2022-08-21T10:48:49.958Z,25.18
2022-08-21T10:51:49.720Z,25.37
2022-08-21T10:55:01.383Z,25.15
2022-08-21T10:58:00.298Z,25.28
2022-08-21T11:00:54.554Z,25.60
2022-08-21T11:03:40.676Z,25.80
2022-08-21T11:06:15.926Z,25.75
2022-08-21T11:08:52.239Z,25.88
2022-08-21T11:11:46.660Z,25.97
2022-08-21T11:14:56.227Z,26.09
2022-08-21T11:17:56.629Z,25.85
2022-08-21T11:20:48.435Z,25.89
2022-08-21T11:23:39.940Z,25.64
2022-08-21T11:26:16.906Z,25.69
2022-08-21T11:28:59.893Z,25.58
2022-08-21T11:31:59.575Z,25.63
2022-08-21T11:35:04.283Z,25.91
2022-08-21T11:38:05.865Z,25.80
2022-08-21T11:40:47.781Z,25.91
2022-08-21T11:43:41.336Z,26.04
2022-08-21T11:46:27.313Z,25.92
2022-08-21T11:49:15.565Z,25.97
2022-08-21T11:52:04.191Z,25.94
2022-08-21T11:55:13.773Z,25.72
2022-08-21T11:58:02.299Z,25.64
2022-08-21T12:00:39.909Z,25.59
2022-08-21T12:03:22.589Z,25.41
2022-08-21T12:06:10.290Z,25.17
2022-08-21T12:08:45.062Z,24.90
2022-08-21T12:11:18.265Z,24.81
2022-08-21T12:14:07.758Z,24.61
2022-08-21T12:16:43.168Z,24.59
2022-08-21T12:19:15.709Z,24.62
2022-08-21T12:22:11.306Z,24.59
2022-08-21T12:24:51.717Z,24.47
2022-08-21T12:27:31.289Z,24.28
2022-08-21T12:30:08.857Z,24.05
2022-08-21T12:32:41.933Z,24.10
2022-08-21T12:35:25.543Z,24.15
2022-08-21T12:38:19.691Z,24.29
2022-08-21T12:41:06.936Z,24.30
2022-08-21T12:43:44.845Z,24.29
2022-08-21T12:46:21.391Z,24.05
2022-08-21T12:48:57.827Z,23.98
2022-08-21T12:51:35.638Z,23.75
2022-08-21T12:54:03.337Z,23.64
2022-08-21T12:56:35.134Z,23.26
2022-08-21T12:59:12.207Z,22.93
2022-08-21T13:01:50.311Z,22.71
2022-08-21T13:04:22.994Z,22.47
2022-08-21T13:07:00.767Z,22.36
2022-08-21T13:09:32.096Z,22.14
2022-08-21T13:12:01.239Z,21.94
2022-08-21T13:15:02.338Z,21.54
2022-08-21T13:17:38.692Z,21.61
2022-08-21T13:20:23.351Z,21.43
2022-08-21T13:22:51.612Z,21.42
2022-08-21T13:25:23.169Z,21.30
2022-08-21T13:28:14.172Z,21.14
2022-08-21T13:30:54.717Z,21.11
2022-08-21T13:33:37.556Z,21.06
2022-08-21T13:36:12.603Z,21.04
2022-08-21T13:38:43.666Z,21.01
2022-08-21T13:41:17.104Z,21.02
2022-08-21T13:44:00.466Z,21.17
2022-08-21T13:46:37.791Z,21.07
2022-08-21T13:49:09.505Z,21.13
2022-08-21T13:51:38.144Z,21.20
2022-08-21T13:54:38.110Z,21.32
2022-08-21T13:57:05.721Z,21.33
2022-08-21T13:59:36.827Z,21.42
2022-08-21T14:02:24.816Z,21.19
2022-08-21T14:05:02.833Z,21.16
2022-08-21T14:07:44.125Z,21.10
2022-08-21T14:10:24.390Z,21.11
2022-08-21T14:13:03.014Z,21.13
2022-08-21T14:15:34.735Z,21.10
2022-08-21T14:18:17.681Z,21.10
2022-08-21T14:20:46.095Z,21.02
2022-08-21T14:23:26.351Z,21.03
2022-08-21T14:25:54.461Z,21.13
2022-08-21T14:28:37.335Z,21.19
2022-08-21T14:31:21.375Z,21.15
2022-08-21T14:33:49.719Z,21.19
2022-08-21T14:36:17.221Z,21.20
2022-08-21T14:38:45.165Z,21.25
2022-08-21T14:41:20.591Z,21.37
2022-08-21T14:44:01.218Z,21.34
2022-08-21T14:46:40.865Z,21.34
2022-08-21T14:49:29.624Z,21.12
2022-08-21T14:51:58.800Z,21.04
2022-08-21T14:54:31.533Z,20.88
2022-08-21T14:57:10.823Z,20.78
2022-08-21T14:59:40.032Z,20.76
2022-08-21T15:02:09.340Z,20.77
2022-08-21T15:04:36.788Z,20.85
2022-08-21T15:07:05.169Z,20.81
2022-08-21T15:09:32.373Z,20.75
2022-08-21T15:12:03.055Z,20.80
2022-08-21T15:14:35.734Z,20.84
2022-08-21T15:17:04.848Z,20.84
2022-08-21T15:19:32.468Z,20.80
2022-08-21T15:22:00.092Z,20.77
2022-08-21T15:24:28.639Z,20.79
2022-08-21T15:26:57.752Z,20.81
2022-08-21T15:29:25.041Z,20.84
2022-08-21T15:32:15.803Z,20.82
2022-08-21T15:34:43.133Z,20.82
2022-08-21T15:37:10.643Z,20.85
2022-08-21T15:39:39.666Z,20.82
2022-08-21T15:42:10.838Z,20.83
2022-08-21T15:44:41.077Z,20.74
2022-08-21T15:47:18.903Z,20.65
2022-08-21T15:49:46.564Z,20.50
2022-08-21T15:52:20.229Z,20.44
2022-08-21T15:54:48.999Z,20.32
2022-08-21T15:57:22.231Z,20.25
2022-08-21T16:00:06.215Z,20.18
2022-08-21T16:02:34.092Z,20.15
2022-08-21T16:05:01.795Z,20.19
2022-08-21T16:07:29.038Z,20.17
2022-08-21T16:09:56.297Z,20.16
2022-08-21T16:12:32.048Z,20.11
2022-08-21T16:15:03.261Z,20.06
2022-08-21T16:17:34.339Z,20.13
2022-08-21T16:20:07.782Z,20.17
2022-08-21T16:22:41.318Z,20.01
2022-08-21T16:25:14.797Z,19.90
2022-08-21T16:27:49.747Z,19.76
2022-08-21T16:30:19.927Z,19.70
2022-08-21T16:32:49.071Z,19.75
2022-08-21T16:35:20.095Z,19.67
2022-08-21T16:37:52.815Z,19.56
2022-08-21T16:40:23.518Z,19.58
2022-08-21T16:42:51.374Z,19.65
2022-08-21T16:45:21.538Z,19.64
2022-08-21T16:47:49.079Z,19.64
2022-08-21T16:50:22.480Z,19.66
2022-08-21T16:52:51.016Z,19.67
2022-08-21T16:55:18.677Z,19.75
2022-08-21T16:57:46.074Z,19.82
2022-08-21T17:00:14.784Z,19.90
2022-08-21T17:02:53.610Z,19.89
2022-08-21T17:05:21.598Z,19.87
2022-08-21T17:07:49.204Z,20.04
2022-08-21T17:10:19.245Z,20.13
2022-08-21T17:12:56.158Z,20.09
2022-08-21T17:15:31.515Z,19.96
2022-08-21T17:18:01.069Z,19.91
2022-08-21T17:20:29.717Z,19.90
2022-08-21T17:22:57.442Z,19.88
2022-08-21T17:25:25.361Z,19.79
2022-08-21T17:27:53.902Z,19.71
2022-08-21T17:30:22.667Z,19.74
2022-08-21T17:32:54.757Z,19.69
2022-08-21T17:35:22.555Z,19.84
2022-08-21T17:37:50.969Z,19.79
2022-08-21T17:40:18.874Z,19.75
2022-08-21T17:42:49.096Z,19.76
2022-08-21T17:45:20.160Z,19.71
2022-08-21T17:47:47.799Z,19.71
2022-08-21T17:50:22.392Z,19.68
2022-08-21T17:52:50.851Z,19.68
2022-08-21T17:55:20.600Z,19.72
2022-08-21T17:57:51.524Z,19.75
2022-08-21T18:00:20.873Z,19.76
2022-08-21T18:02:58.711Z,19.75
2022-08-21T18:05:26.359Z,19.83
2022-08-21T18:07:53.640Z,19.81
2022-08-21T18:10:20.993Z,19.86
2022-08-21T18:12:49.474Z,19.82
2022-08-21T18:15:19.905Z,19.73
2022-08-21T18:17:51.246Z,19.63
2022-08-21T18:20:23.939Z,19.57
2022-08-21T18:22:51.718Z,19.63
2022-08-21T18:25:19.147Z,19.62
2022-08-21T18:27:48.526Z,19.63
2022-08-21T18:30:23.271Z,19.53
2022-08-21T18:32:54.395Z,19.43
2022-08-21T18:35:23.206Z,19.47
2022-08-21T18:37:50.490Z,19.37
2022-08-21T18:40:18.302Z,19.38
2022-08-21T18:42:58.875Z,19.43
2022-08-21T18:45:27.916Z,19.39
2022-08-21T18:47:58.409Z,19.38
2022-08-21T18:50:29.306Z,19.39
2022-08-21T18:52:57.129Z,19.42
2022-08-21T18:55:25.306Z,19.43
2022-08-21T18:57:55.468Z,19.43
2022-08-21T19:00:30.616Z,19.41
2022-08-21T19:02:59.439Z,19.45
2022-08-21T19:05:27.640Z,19.49
2022-08-21T19:07:55.997Z,19.49
2022-08-21T19:13:15.332Z,19.49
2022-08-21T19:15:49.909Z,19.51
2022-08-21T19:18:21.381Z,19.49
2022-08-21T19:20:52.462Z,19.49
2022-08-21T19:23:20.658Z,19.46
2022-08-21T19:26:01.392Z,19.45
2022-08-21T19:28:39.560Z,19.44
2022-08-21T19:31:32.551Z,19.39
2022-08-21T19:34:06.070Z,19.37
2022-08-21T19:36:34.161Z,19.34
2022-08-21T19:39:08.198Z,19.31
2022-08-21T19:41:42.046Z,19.25
2022-08-21T19:44:16.724Z,19.19
2022-08-21T19:46:50.115Z,19.22
2022-08-21T19:49:26.919Z,19.18
2022-08-21T19:51:54.647Z,19.19
2022-08-21T19:54:30.010Z,19.24
2022-08-21T19:57:03.651Z,19.16
2022-08-21T19:59:33.979Z,19.11
2022-08-21T20:02:01.720Z,19.10
2022-08-21T20:04:29.699Z,19.10
2022-08-21T20:06:57.366Z,19.10
2022-08-21T20:09:25.054Z,19.12
2022-08-21T20:12:06.329Z,19.13
2022-08-21T20:14:44.440Z,19.15
2022-08-21T20:17:14.872Z,19.11
2022-08-21T20:19:45.073Z,19.05
2022-08-21T20:22:13.854Z,18.97
2022-08-21T20:24:42.306Z,18.91
2022-08-21T20:27:20.681Z,18.96
2022-08-21T20:29:48.077Z,18.96
2022-08-21T20:32:17.998Z,18.93
2022-08-21T20:34:46.077Z,18.92
2022-08-21T20:40:11.592Z,18.98
2022-08-21T20:42:50.048Z,19.08
2022-08-21T20:45:31.535Z,19.09
2022-08-21T20:48:26.633Z,19.13
2022-08-21T20:51:16.365Z,19.16
2022-08-21T20:54:15.942Z,19.20
2022-08-21T20:56:58.295Z,19.22
2022-08-21T20:59:58.469Z,19.29
2022-08-21T21:02:48.376Z,19.32
2022-08-21T21:05:36.523Z,19.35
2022-08-21T21:08:18.805Z,19.41
2022-08-21T21:10:55.786Z,19.41
2022-08-21T21:13:44.198Z,19.42
2022-08-21T21:16:50.656Z,19.41
2022-08-21T21:19:47.322Z,19.37
2022-08-21T21:22:25.048Z,19.42
2022-08-21T21:25:14.931Z,19.47
2022-08-21T21:27:58.436Z,19.49
2022-08-21T21:33:31.471Z,19.60
2022-08-21T21:36:43.737Z,19.55
2022-08-21T21:42:30.105Z,19.61
2022-08-21T21:46:01.073Z,19.66
2022-08-21T21:49:15.988Z,19.71
2022-08-21T21:52:19.376Z,19.77
2022-08-21T21:55:28.158Z,19.76
2022-08-21T21:58:30.666Z,19.71
2022-08-21T22:01:38.005Z,19.75
2022-08-21T22:04:31.445Z,19.77
2022-08-21T22:07:43.567Z,19.78
2022-08-21T22:10:42.885Z,19.81
2022-08-21T22:13:52.303Z,19.80
2022-08-21T22:16:20.764Z,19.83
2022-08-21T22:19:01.779Z,19.82
2022-08-21T22:21:38.775Z,19.80
2022-08-21T22:24:37.164Z,19.75
2022-08-21T22:27:20.009Z,19.76
2022-08-21T22:29:50.762Z,19.77
2022-08-21T22:32:39.970Z,19.78
2022-08-21T22:35:27.521Z,19.77
2022-08-21T22:37:59.359Z,19.80
2022-08-21T22:40:36.785Z,19.76
2022-08-21T22:43:16.671Z,19.75
2022-08-21T22:46:04.247Z,19.72
2022-08-21T22:48:58.891Z,19.74
2022-08-21T22:51:36.999Z,19.79
2022-08-21T22:54:16.871Z,19.84
2022-08-21T22:57:02.059Z,19.81
2022-08-21T22:59:35.474Z,19.83
2022-08-21T23:02:21.928Z,19.84
2022-08-21T23:04:51.808Z,19.88
2022-08-21T23:07:43.547Z,19.87
2022-08-21T23:10:28.580Z,19.90
2022-08-21T23:13:09.262Z,19.92
2022-08-21T23:16:18.770Z,19.91
2022-08-21T23:18:58.014Z,19.99
2022-08-21T23:21:45.193Z,20.02
2022-08-21T23:24:46.595Z,20.01
2022-08-21T23:27:56.190Z,20.00
2022-08-21T23:30:55.321Z,20.03
2022-08-21T23:34:08.009Z,20.16
2022-08-21T23:40:50.928Z,20.34
2022-08-21T23:43:35.843Z,20.31
2022-08-21T23:46:16.434Z,20.26
2022-08-21T23:48:54.255Z,20.32
2022-08-21T23:51:47.107Z,20.26
2022-08-21T23:54:35.665Z,20.20
2022-08-21T23:57:32.842Z,20.22
